createdAt,value
2023-03-15T00:00:57.417Z,2.60
2023-03-15T00:02:02.778Z,2.60
2023-03-15T00:03:05.540Z,2.60
2023-03-15T00:04:07.749Z,2.60
2023-03-15T00:05:12.922Z,2.60
2023-03-15T00:06:15.661Z,2.60
2023-03-15T00:07:17.389Z,2.60
2023-03-15T00:08:19.686Z,2.50
2023-03-15T00:09:22.322Z,2.50
2023-03-15T00:10:24.083Z,2.50
2023-03-15T00:11:25.858Z,2.50
2023-03-15T00:12:27.611Z,2.50
2023-03-15T00:13:29.728Z,2.50
2023-03-15T00:14:31.702Z,2.40
2023-03-15T00:15:33.627Z,2.40
2023-03-15T00:16:35.473Z,2.40
2023-03-15T00:17:37.274Z,2.50
2023-03-15T00:18:39.070Z,2.40
2023-03-15T00:19:40.819Z,2.40
2023-03-15T00:20:42.885Z,2.40
2023-03-15T00:21:44.842Z,2.40
2023-03-15T00:22:46.554Z,2.40
2023-03-15T00:23:48.865Z,2.40
2023-03-15T00:24:50.572Z,2.40
2023-03-15T00:25:53.417Z,2.40
2023-03-15T00:26:55.140Z,2.40
2023-03-15T00:27:56.857Z,2.40
2023-03-15T00:28:58.588Z,2.40
2023-03-15T00:30:00.371Z,2.40
2023-03-15T00:31:17.935Z,2.40
2023-03-15T00:32:19.724Z,2.40
2023-03-15T00:33:21.557Z,2.40
2023-03-15T00:34:25.918Z,2.40
2023-03-15T00:35:28.056Z,2.50
2023-03-15T00:36:29.920Z,2.40
2023-03-15T00:37:32.106Z,2.40
2023-03-15T00:38:34.862Z,2.50
2023-03-15T00:39:38.609Z,2.50
2023-03-15T00:40:40.706Z,2.50
2023-03-15T00:41:42.453Z,2.50
2023-03-15T00:42:50.241Z,2.50
2023-03-15T00:43:52.458Z,2.50
2023-03-15T00:44:55.866Z,2.50
2023-03-15T00:45:58.938Z,2.50
2023-03-15T00:47:00.669Z,2.60
2023-03-15T00:48:02.579Z,2.60
2023-03-15T00:49:04.694Z,2.60
2023-03-15T00:50:06.629Z,2.60
2023-03-15T00:51:14.518Z,2.60
2023-03-15T00:52:16.769Z,2.60
2023-03-15T00:53:18.471Z,2.60
2023-03-15T00:54:23.707Z,2.60
2023-03-15T00:55:26.988Z,2.50
2023-03-15T00:56:30.188Z,2.50
2023-03-15T00:57:34.759Z,2.60
2023-03-15T00:58:36.822Z,2.60
2023-03-15T00:59:38.599Z,2.60
2023-03-15T01:00:41.400Z,2.60
2023-03-15T01:01:44.832Z,2.60
2023-03-15T01:02:47.176Z,2.60
2023-03-15T01:03:49.309Z,2.60
2023-03-15T01:04:51.383Z,2.60
2023-03-15T01:05:53.098Z,2.60
2023-03-15T01:06:54.857Z,2.60
2023-03-15T01:07:56.649Z,2.60
2023-03-15T01:08:58.943Z,2.60
2023-03-15T01:10:05.429Z,2.50
2023-03-15T01:11:10.335Z,2.50
2023-03-15T01:12:12.090Z,2.50
2023-03-15T01:13:13.840Z,2.50
2023-03-15T01:14:15.684Z,2.50
2023-03-15T01:15:17.538Z,2.50
2023-03-15T01:16:19.684Z,2.50
2023-03-15T01:17:21.662Z,2.50
2023-03-15T01:18:23.407Z,2.50
2023-03-15T01:19:25.124Z,2.50
2023-03-15T01:20:26.894Z,2.50
2023-03-15T01:21:28.608Z,2.50
2023-03-15T01:22:30.449Z,2.50
2023-03-15T01:23:32.363Z,2.50
2023-03-15T01:24:34.252Z,2.50
2023-03-15T01:25:36.016Z,2.50
2023-03-15T01:26:37.944Z,2.50
2023-03-15T01:27:39.681Z,2.50
2023-03-15T01:28:41.999Z,2.50
2023-03-15T01:29:43.745Z,2.50
2023-03-15T01:30:52.912Z,2.50
2023-03-15T01:31:54.766Z,2.50
2023-03-15T01:32:56.575Z,2.50
2023-03-15T01:33:59.211Z,2.50
2023-03-15T01:35:00.969Z,2.50
2023-03-15T01:36:07.251Z,2.50
2023-03-15T01:37:10.409Z,2.50
2023-03-15T01:38:12.423Z,2.50
2023-03-15T01:39:14.170Z,2.50
2023-03-15T01:40:15.975Z,2.50
2023-03-15T01:41:19.103Z,2.50
2023-03-15T01:42:20.844Z,2.50
2023-03-15T01:43:25.861Z,2.50
2023-03-15T01:44:47.817Z,2.50
2023-03-15T01:46:01.404Z,2.50
2023-03-15T01:47:03.214Z,2.50
2023-03-15T01:48:05.388Z,2.50
2023-03-15T01:49:26.986Z,2.50
2023-03-15T01:50:28.817Z,2.50
2023-03-15T01:51:33.657Z,2.50
2023-03-15T01:52:39.134Z,2.50
2023-03-15T01:53:43.563Z,2.40
2023-03-15T01:55:11.678Z,2.40
2023-03-15T01:56:14.639Z,2.40
2023-03-15T01:57:40.211Z,2.40
2023-03-15T01:58:44.854Z,2.40
2023-03-15T01:59:52.575Z,2.40
2023-03-15T02:00:54.413Z,2.40
2023-03-15T02:01:56.805Z,2.40
2023-03-15T02:03:03.791Z,2.40
2023-03-15T02:04:11.504Z,2.40
2023-03-15T02:05:19.222Z,2.40
2023-03-15T02:06:23.842Z,2.40
2023-03-15T02:07:29.144Z,2.40
2023-03-15T02:08:34.017Z,2.40
2023-03-15T02:09:52.815Z,2.40
2023-03-15T02:10:58.806Z,2.40
2023-03-15T02:12:01.640Z,2.40
2023-03-15T02:13:03.693Z,2.30
2023-03-15T02:14:06.663Z,2.30
2023-03-15T02:15:09.508Z,2.30
2023-03-15T02:16:11.592Z,2.30
2023-03-15T02:17:13.506Z,2.30
2023-03-15T02:18:16.198Z,2.30
2023-03-15T02:19:43.953Z,2.30
2023-03-15T02:20:50.977Z,2.30
2023-03-15T02:22:05.420Z,2.30
2023-03-15T02:23:11.488Z,2.30
2023-03-15T02:24:33.648Z,2.30
2023-03-15T02:25:38.373Z,2.30
2023-03-15T02:26:45.510Z,2.30
2023-03-15T02:27:47.656Z,2.30
2023-03-15T02:28:50.812Z,2.30
2023-03-15T02:29:53.073Z,2.30
2023-03-15T02:30:54.953Z,2.30
2023-03-15T02:31:58.029Z,2.20
2023-03-15T02:33:02.918Z,2.20
2023-03-15T02:34:07.692Z,2.30
2023-03-15T02:35:09.792Z,2.20
2023-03-15T02:36:23.370Z,2.20
2023-03-15T02:37:25.196Z,2.30
2023-03-15T02:38:26.927Z,2.30
2023-03-15T02:39:28.716Z,2.20
2023-03-15T02:40:37.997Z,2.30
2023-03-15T02:41:43.679Z,2.30
2023-03-15T02:42:46.996Z,2.30
2023-03-15T02:43:52.113Z,2.30
2023-03-15T02:44:55.684Z,2.30
2023-03-15T02:45:57.729Z,2.30
2023-03-15T02:47:13.726Z,2.30
2023-03-15T02:48:17.087Z,2.30
2023-03-15T02:49:21.543Z,2.30
2023-03-15T02:50:23.305Z,2.30
2023-03-15T02:51:28.499Z,2.30
2023-03-15T02:52:30.393Z,2.30
2023-03-15T02:53:32.942Z,2.20
2023-03-15T02:54:34.801Z,2.30
2023-03-15T02:55:36.604Z,2.30
2023-03-15T02:56:38.352Z,2.30
2023-03-15T02:57:40.212Z,2.20
2023-03-15T02:58:45.801Z,2.30
2023-03-15T02:59:50.854Z,2.30
2023-03-15T03:00:53.847Z,2.20
2023-03-15T03:01:55.830Z,2.20
2023-03-15T03:02:57.574Z,2.20
2023-03-15T03:03:59.349Z,2.20
2023-03-15T03:05:01.088Z,2.20
2023-03-15T03:06:02.837Z,2.20
2023-03-15T03:07:04.620Z,2.20
2023-03-15T03:08:06.588Z,2.20
2023-03-15T03:09:08.366Z,2.10
2023-03-15T03:10:13.667Z,2.20
2023-03-15T03:11:16.264Z,2.20
2023-03-15T03:12:18.201Z,2.20
2023-03-15T03:13:19.919Z,2.10
2023-03-15T03:14:23.872Z,2.20
2023-03-15T03:15:25.655Z,2.10
2023-03-15T03:16:27.438Z,2.10
2023-03-15T03:17:29.221Z,2.10
2023-03-15T03:18:35.729Z,2.10
2023-03-15T03:19:37.532Z,2.10
2023-03-15T03:20:39.245Z,2.10
2023-03-15T03:21:44.417Z,2.00
2023-03-15T03:22:46.301Z,2.00
2023-03-15T03:23:48.035Z,2.00
2023-03-15T03:24:51.015Z,2.00
2023-03-15T03:25:57.734Z,2.00
2023-03-15T03:26:59.993Z,1.90
2023-03-15T03:28:04.307Z,1.90
2023-03-15T03:29:06.189Z,1.90
2023-03-15T03:30:10.650Z,1.90
2023-03-15T03:31:19.736Z,1.90
2023-03-15T03:32:21.744Z,1.90
2023-03-15T03:33:23.867Z,1.90
2023-03-15T03:34:25.814Z,1.90
2023-03-15T03:35:27.594Z,2.00
2023-03-15T03:36:29.409Z,2.00
2023-03-15T03:37:31.166Z,2.00
2023-03-15T03:38:32.888Z,2.00
2023-03-15T03:39:34.588Z,2.00
2023-03-15T03:40:36.596Z,2.10
2023-03-15T03:41:38.360Z,2.10
2023-03-15T03:42:40.260Z,2.10
2023-03-15T03:43:42.086Z,2.00
2023-03-15T03:44:44.066Z,2.00
2023-03-15T03:45:45.850Z,2.00
2023-03-15T03:46:47.640Z,2.00
2023-03-15T03:47:50.527Z,2.00
2023-03-15T03:48:52.259Z,2.00
2023-03-15T03:49:53.976Z,2.00
2023-03-15T03:50:55.756Z,2.00
2023-03-15T03:51:57.482Z,2.00
2023-03-15T03:52:59.250Z,2.00
2023-03-15T03:54:04.713Z,2.00
2023-03-15T03:55:06.812Z,2.00
2023-03-15T03:56:09.036Z,1.90
2023-03-15T03:57:11.396Z,1.90
2023-03-15T03:58:13.182Z,1.90
2023-03-15T03:59:15.298Z,1.80
2023-03-15T04:00:17.876Z,1.80
2023-03-15T04:01:19.881Z,1.80
2023-03-15T04:02:21.822Z,1.80
2023-03-15T04:03:27.134Z,1.80
2023-03-15T04:04:28.955Z,1.80
2023-03-15T04:05:31.136Z,1.80
2023-03-15T04:06:32.835Z,1.80
2023-03-15T04:07:34.597Z,1.80
2023-03-15T04:08:36.385Z,1.90
2023-03-15T04:09:38.126Z,1.80
2023-03-15T04:10:39.871Z,1.90
2023-03-15T04:11:43.083Z,1.90
2023-03-15T04:12:45.181Z,1.80
2023-03-15T04:13:46.933Z,1.80
2023-03-15T04:14:48.696Z,1.90
2023-03-15T04:15:51.271Z,1.80
2023-03-15T04:16:54.580Z,1.80
2023-03-15T04:17:58.483Z,1.80
2023-03-15T04:19:00.305Z,1.80
2023-03-15T04:20:02.086Z,1.80
2023-03-15T04:21:04.040Z,1.80
2023-03-15T04:22:06.592Z,1.80
2023-03-15T04:23:08.355Z,1.80
2023-03-15T04:24:10.102Z,1.80
2023-03-15T04:25:11.907Z,1.80
2023-03-15T04:26:14.650Z,1.90
2023-03-15T04:27:16.803Z,1.90
2023-03-15T04:28:19.607Z,1.90
2023-03-15T04:29:21.506Z,1.90
2023-03-15T04:30:26.970Z,1.90
2023-03-15T04:31:28.859Z,1.90
2023-03-15T04:32:30.659Z,1.90
2023-03-15T04:33:32.574Z,1.90
2023-03-15T04:34:38.709Z,1.90
2023-03-15T04:35:42.523Z,1.90
2023-03-15T04:36:44.391Z,1.80
2023-03-15T04:37:47.074Z,1.80
2023-03-15T04:38:49.838Z,1.80
2023-03-15T04:39:52.447Z,1.80
2023-03-15T04:40:55.218Z,1.80
2023-03-15T04:41:56.963Z,1.80
2023-03-15T04:42:58.711Z,1.80
2023-03-15T04:44:01.766Z,1.80
2023-03-15T04:45:04.264Z,1.80
2023-03-15T04:46:06.412Z,1.80
2023-03-15T04:47:08.239Z,1.80
2023-03-15T04:48:10.891Z,1.80
2023-03-15T04:49:12.896Z,1.80
2023-03-15T04:50:15.251Z,1.80
2023-03-15T04:51:16.950Z,1.80
2023-03-15T04:52:18.670Z,1.80
2023-03-15T04:53:20.556Z,1.80
2023-03-15T04:54:23.285Z,1.80
2023-03-15T04:55:25.133Z,1.80
2023-03-15T04:56:28.232Z,1.80
2023-03-15T04:57:30.036Z,1.80
2023-03-15T04:58:31.905Z,1.80
2023-03-15T04:59:33.620Z,1.70
2023-03-15T05:00:35.406Z,1.70
2023-03-15T05:01:37.470Z,1.70
2023-03-15T05:02:41.769Z,1.70
2023-03-15T05:03:43.633Z,1.80
2023-03-15T05:04:45.374Z,1.70
2023-03-15T05:05:47.261Z,1.80
2023-03-15T05:06:49.018Z,1.80
2023-03-15T05:07:51.054Z,1.80
2023-03-15T05:08:53.437Z,1.80
2023-03-15T05:09:55.183Z,1.80
2023-03-15T05:10:56.904Z,1.80
2023-03-15T05:11:58.690Z,1.80
2023-03-15T05:13:00.454Z,1.80
2023-03-15T05:14:02.154Z,1.80
2023-03-15T05:15:04.250Z,1.80
2023-03-15T05:16:06.224Z,1.80
2023-03-15T05:17:08.452Z,1.80
2023-03-15T05:18:10.205Z,1.80
2023-03-15T05:19:11.919Z,1.80
2023-03-15T05:20:15.803Z,1.80
2023-03-15T05:21:17.525Z,1.80
2023-03-15T05:22:19.523Z,1.80
2023-03-15T05:23:23.187Z,1.80
2023-03-15T05:24:24.958Z,1.80
2023-03-15T05:25:26.806Z,1.80
2023-03-15T05:26:28.554Z,1.80
2023-03-15T05:27:32.588Z,1.80
2023-03-15T05:28:34.413Z,1.70
2023-03-15T05:29:36.159Z,1.70
2023-03-15T05:30:38.013Z,1.70
2023-03-15T05:31:40.146Z,1.70
2023-03-15T05:32:44.839Z,1.70
2023-03-15T05:33:46.982Z,1.70
2023-03-15T05:34:48.826Z,1.70
2023-03-15T05:35:53.111Z,1.70
2023-03-15T05:36:54.913Z,1.70
2023-03-15T05:37:56.670Z,1.70
2023-03-15T05:38:58.463Z,1.70
2023-03-15T05:40:01.407Z,1.70
2023-03-15T05:41:03.146Z,1.70
2023-03-15T05:42:05.243Z,1.70
2023-03-15T05:43:06.973Z,1.70
2023-03-15T05:44:09.063Z,1.70
2023-03-15T05:45:11.084Z,1.70
2023-03-15T05:46:13.356Z,1.70
2023-03-15T05:47:15.502Z,1.70
2023-03-15T05:48:17.277Z,1.70
2023-03-15T05:49:19.186Z,1.70
2023-03-15T05:50:21.040Z,1.70
2023-03-15T05:51:22.778Z,1.70
2023-03-15T05:52:24.652Z,1.70
2023-03-15T05:53:26.500Z,1.70
2023-03-15T05:54:28.324Z,1.70
2023-03-15T05:55:30.101Z,1.70
2023-03-15T05:56:31.853Z,1.70
2023-03-15T05:57:33.657Z,1.70
2023-03-15T05:58:35.457Z,1.80
2023-03-15T05:59:37.258Z,1.80
2023-03-15T06:00:39.035Z,1.80
2023-03-15T06:01:40.763Z,1.80
2023-03-15T06:02:44.792Z,1.80
2023-03-15T06:03:46.687Z,1.80
2023-03-15T06:04:48.494Z,1.80
2023-03-15T06:05:51.340Z,1.90
2023-03-15T06:06:53.534Z,1.90
2023-03-15T06:07:55.304Z,1.90
2023-03-15T06:08:57.070Z,1.90
2023-03-15T06:09:58.853Z,1.90
2023-03-15T06:11:00.635Z,1.90
2023-03-15T06:12:02.425Z,1.90
2023-03-15T06:13:04.188Z,1.90
2023-03-15T06:14:05.958Z,2.00
2023-03-15T06:15:08.934Z,2.00
2023-03-15T06:16:10.682Z,2.00
2023-03-15T06:17:12.551Z,2.00
2023-03-15T06:18:14.381Z,2.00
2023-03-15T06:19:16.118Z,2.00
2023-03-15T06:20:18.362Z,2.00
2023-03-15T06:21:20.171Z,2.00
2023-03-15T06:22:23.065Z,2.10
2023-03-15T06:23:24.811Z,2.10
2023-03-15T06:24:26.556Z,2.10
2023-03-15T06:25:28.396Z,2.10
2023-03-15T06:26:30.161Z,2.10
2023-03-15T06:27:32.173Z,2.20
2023-03-15T06:28:34.071Z,2.20
2023-03-15T06:29:35.799Z,2.20
2023-03-15T06:30:37.552Z,2.20
2023-03-15T06:31:39.341Z,2.20
2023-03-15T06:32:41.191Z,2.30
2023-03-15T06:33:42.989Z,2.30
2023-03-15T06:34:44.701Z,2.30
2023-03-15T06:35:47.053Z,2.30
2023-03-15T06:36:49.721Z,2.40
2023-03-15T06:37:53.048Z,2.40
2023-03-15T06:38:54.819Z,2.40
2023-03-15T06:39:56.954Z,2.40
2023-03-15T06:41:02.532Z,2.40
2023-03-15T06:42:06.618Z,2.50
2023-03-15T06:43:08.830Z,2.50
2023-03-15T06:44:11.047Z,2.50
2023-03-15T06:45:13.136Z,2.60
2023-03-15T06:46:14.927Z,2.60
2023-03-15T06:47:16.700Z,2.60
2023-03-15T06:48:18.532Z,2.70
2023-03-15T06:49:20.524Z,2.70
2023-03-15T06:50:22.297Z,2.70
2023-03-15T06:51:24.157Z,2.70
2023-03-15T06:52:25.954Z,2.70
2023-03-15T06:53:27.686Z,2.80
2023-03-15T06:54:29.494Z,2.80
2023-03-15T06:55:31.311Z,2.80
2023-03-15T06:56:37.191Z,2.80
2023-03-15T06:57:38.935Z,2.90
2023-03-15T06:58:40.690Z,2.90
2023-03-15T06:59:42.470Z,3.00
2023-03-15T07:00:44.478Z,3.00
2023-03-15T07:01:46.341Z,3.10
2023-03-15T07:02:48.489Z,3.10
2023-03-15T07:03:50.229Z,3.10
2023-03-15T07:04:52.085Z,3.20
2023-03-15T07:05:54.633Z,3.20
2023-03-15T07:06:56.441Z,3.20
2023-03-15T07:07:58.476Z,3.30
2023-03-15T07:09:00.229Z,3.20
2023-03-15T07:10:02.429Z,3.20
2023-03-15T07:11:04.455Z,3.30
2023-03-15T07:12:06.709Z,3.40
2023-03-15T07:13:09.836Z,3.40
2023-03-15T07:14:11.618Z,3.40
2023-03-15T07:15:15.078Z,3.50
2023-03-15T07:16:17.857Z,3.50
2023-03-15T07:17:19.708Z,3.50
2023-03-15T07:18:21.739Z,3.50
2023-03-15T07:19:23.451Z,3.60
2023-03-15T07:20:25.188Z,3.60
2023-03-15T07:21:27.710Z,3.60
2023-03-15T07:22:29.412Z,3.70
2023-03-15T07:23:31.698Z,3.70
2023-03-15T07:24:33.430Z,3.80
2023-03-15T07:25:48.252Z,3.80
2023-03-15T07:26:56.637Z,3.80
2023-03-15T07:27:58.420Z,3.90
2023-03-15T07:29:00.161Z,4.00
2023-03-15T07:30:02.120Z,4.00
2023-03-15T07:31:06.012Z,4.10
2023-03-15T07:32:07.821Z,4.20
2023-03-15T07:33:09.674Z,4.10
2023-03-15T07:34:11.570Z,4.10
2023-03-15T07:35:14.063Z,4.10
2023-03-15T07:36:15.866Z,4.10
2023-03-15T07:37:17.625Z,4.10
2023-03-15T07:38:20.823Z,4.10
2023-03-15T07:39:23.398Z,4.10
2023-03-15T07:40:26.406Z,4.20
2023-03-15T07:41:28.116Z,4.20
2023-03-15T07:42:29.819Z,4.30
2023-03-15T07:43:31.865Z,4.30
2023-03-15T07:44:33.714Z,4.40
2023-03-15T07:45:35.458Z,4.40
2023-03-15T07:46:37.297Z,4.40
2023-03-15T07:47:39.053Z,4.50
2023-03-15T07:48:41.259Z,4.50
2023-03-15T07:49:43.241Z,4.50
2023-03-15T07:50:45.974Z,4.50
2023-03-15T07:51:47.832Z,4.50
2023-03-15T07:52:49.560Z,4.40
2023-03-15T07:53:51.354Z,4.40
2023-03-15T07:54:53.372Z,4.40
2023-03-15T07:55:55.139Z,4.40
2023-03-15T07:56:56.957Z,4.50
2023-03-15T07:57:58.732Z,4.50
2023-03-15T07:59:00.516Z,4.50
2023-03-15T08:00:02.242Z,4.50
2023-03-15T08:01:04.211Z,4.50
2023-03-15T08:02:06.046Z,4.50
2023-03-15T08:03:08.123Z,4.60
2023-03-15T08:04:10.246Z,4.60
2023-03-15T08:05:11.988Z,4.70
2023-03-15T08:06:13.723Z,4.70
2023-03-15T08:07:15.468Z,4.80
2023-03-15T08:08:17.226Z,4.80
2023-03-15T08:09:18.990Z,4.90
2023-03-15T08:10:20.748Z,4.90
2023-03-15T08:11:22.507Z,5.00
2023-03-15T08:12:25.169Z,5.00
2023-03-15T08:13:26.955Z,5.00
2023-03-15T08:14:31.530Z,4.90
2023-03-15T08:15:33.244Z,4.90
2023-03-15T08:16:34.978Z,4.80
2023-03-15T08:17:36.791Z,4.80
2023-03-15T08:18:38.490Z,4.70
2023-03-15T08:19:40.269Z,4.70
2023-03-15T08:20:42.180Z,4.60
2023-03-15T08:21:45.320Z,4.60
2023-03-15T08:22:51.450Z,4.60
2023-03-15T08:23:53.212Z,4.70
2023-03-15T08:24:55.051Z,4.70
2023-03-15T08:25:57.268Z,4.70
2023-03-15T08:26:58.994Z,4.80
2023-03-15T08:28:00.958Z,4.80
2023-03-15T08:29:02.901Z,4.80
2023-03-15T08:30:08.654Z,4.80
2023-03-15T08:31:10.517Z,4.80
2023-03-15T08:32:12.980Z,4.80
2023-03-15T08:33:14.802Z,4.80
2023-03-15T08:34:16.576Z,4.80
2023-03-15T08:35:21.036Z,4.80
2023-03-15T08:36:22.864Z,4.80
2023-03-15T08:37:24.636Z,4.80
2023-03-15T08:38:26.427Z,4.70
2023-03-15T08:39:28.157Z,4.70
2023-03-15T08:40:30.854Z,4.50
2023-03-15T08:41:32.802Z,4.40
2023-03-15T08:42:34.866Z,4.30
2023-03-15T08:43:36.607Z,4.20
2023-03-15T08:44:38.332Z,4.20
2023-03-15T08:45:59.730Z,4.00
2023-03-15T08:47:02.136Z,3.80
2023-03-15T08:48:04.257Z,3.70
2023-03-15T08:49:06.010Z,3.60
2023-03-15T08:50:15.169Z,3.50
2023-03-15T08:51:16.953Z,3.40
2023-03-15T08:52:22.108Z,3.40
2023-03-15T08:53:23.859Z,3.40
2023-03-15T08:54:27.433Z,3.40
2023-03-15T08:55:29.288Z,3.30
2023-03-15T08:56:32.443Z,3.30
2023-03-15T08:57:34.765Z,3.30
2023-03-15T08:58:36.656Z,3.30
2023-03-15T08:59:39.363Z,3.30
2023-03-15T09:00:41.173Z,3.20
2023-03-15T09:01:44.893Z,3.20
2023-03-15T09:02:48.752Z,3.20
2023-03-15T09:03:51.574Z,3.20
2023-03-15T09:04:53.632Z,3.10
2023-03-15T09:05:59.400Z,3.00
2023-03-15T09:07:01.766Z,3.00
2023-03-15T09:08:04.752Z,3.00
2023-03-15T09:09:06.682Z,3.00
2023-03-15T09:10:14.969Z,3.10
2023-03-15T09:11:16.751Z,3.10
2023-03-15T09:12:18.679Z,3.20
2023-03-15T09:13:20.446Z,3.20
2023-03-15T09:14:22.170Z,3.30
2023-03-15T09:15:23.952Z,3.40
2023-03-15T09:16:26.164Z,3.50
2023-03-15T09:17:27.907Z,3.70
2023-03-15T09:18:30.666Z,3.80
2023-03-15T09:19:32.754Z,3.90
2023-03-15T09:20:34.706Z,4.00
2023-03-15T09:21:36.667Z,4.10
2023-03-15T09:22:39.788Z,4.10
2023-03-15T09:23:41.734Z,4.20
2023-03-15T09:24:43.555Z,4.30
2023-03-15T09:25:45.489Z,4.30
2023-03-15T09:26:47.201Z,4.40
2023-03-15T09:27:49.189Z,4.40
2023-03-15T09:28:50.968Z,4.50
2023-03-15T09:29:52.674Z,4.50
2023-03-15T09:30:54.605Z,4.50
2023-03-15T09:31:57.270Z,4.60
2023-03-15T09:32:59.059Z,4.60
2023-03-15T09:34:01.017Z,4.60
2023-03-15T09:35:04.598Z,4.60
2023-03-15T09:36:07.225Z,4.70
2023-03-15T09:37:09.587Z,4.70
2023-03-15T09:38:11.777Z,4.70
2023-03-15T09:39:13.493Z,4.70
2023-03-15T09:40:21.083Z,4.70
2023-03-15T09:41:44.477Z,4.60
2023-03-15T09:43:07.733Z,4.60
2023-03-15T09:44:17.817Z,4.60
2023-03-15T09:45:31.113Z,4.60
2023-03-15T09:46:47.491Z,4.70
2023-03-15T09:47:52.217Z,4.70
2023-03-15T09:49:08.801Z,4.60
2023-03-15T09:50:25.695Z,4.60
2023-03-15T09:51:49.199Z,4.60
2023-03-15T09:52:56.843Z,4.60
2023-03-15T09:54:08.463Z,4.60
2023-03-15T09:55:21.584Z,4.60
2023-03-15T09:56:25.712Z,4.70
2023-03-15T09:57:58.130Z,4.60
2023-03-15T09:59:02.161Z,4.60
2023-03-15T10:00:12.456Z,4.60
2023-03-15T10:01:14.888Z,4.60
2023-03-15T10:02:29.800Z,4.70
2023-03-15T10:03:39.781Z,4.70
2023-03-15T10:04:45.536Z,4.70
2023-03-15T10:05:53.780Z,4.70
2023-03-15T10:07:01.326Z,4.70
2023-03-15T10:08:05.552Z,4.60
2023-03-15T10:09:15.121Z,4.60
2023-03-15T10:10:26.646Z,4.50
2023-03-15T10:11:45.284Z,4.50
2023-03-15T10:12:54.559Z,4.40
2023-03-15T10:14:23.693Z,4.40
2023-03-15T10:16:01.426Z,4.30
2023-03-15T10:17:12.906Z,4.30
2023-03-15T10:18:31.227Z,4.30
2023-03-15T10:19:45.844Z,4.30
2023-03-15T10:20:58.866Z,4.30
2023-03-15T10:22:12.958Z,4.30
2023-03-15T10:23:23.705Z,4.30
2023-03-15T10:24:51.711Z,4.30
2023-03-15T10:25:54.319Z,4.30
2023-03-15T10:27:09.017Z,4.40
2023-03-15T10:28:23.449Z,4.40
2023-03-15T10:29:27.879Z,4.50
2023-03-15T10:30:33.598Z,4.40
2023-03-15T10:31:44.452Z,4.40
2023-03-15T10:32:56.073Z,4.40
2023-03-15T10:33:57.978Z,4.40
2023-03-15T10:35:01.464Z,4.50
2023-03-15T10:36:17.626Z,4.40
2023-03-15T10:37:20.000Z,4.50
2023-03-15T10:38:24.803Z,4.50
2023-03-15T10:39:26.607Z,4.50
2023-03-15T10:40:46.780Z,4.50
2023-03-15T10:41:50.981Z,4.60
2023-03-15T10:42:54.100Z,4.60
2023-03-15T10:44:07.894Z,4.60
2023-03-15T10:45:25.872Z,4.60
2023-03-15T10:46:28.059Z,4.70
2023-03-15T10:47:29.836Z,4.70
2023-03-15T10:48:37.611Z,4.70
2023-03-15T10:49:41.273Z,4.70
2023-03-15T10:50:43.055Z,4.80
2023-03-15T10:51:47.529Z,4.80
2023-03-15T10:52:51.350Z,4.90
2023-03-15T10:54:04.561Z,5.00
2023-03-15T10:55:12.743Z,5.10
2023-03-15T10:56:21.924Z,5.30
2023-03-15T10:57:27.756Z,5.40
2023-03-15T10:58:42.186Z,5.50
2023-03-15T11:00:06.866Z,5.50
2023-03-15T11:01:23.161Z,5.50
2023-03-15T11:02:26.085Z,5.40
2023-03-15T11:03:28.616Z,5.40
2023-03-15T11:04:33.781Z,5.50
2023-03-15T11:05:42.010Z,5.50
2023-03-15T11:06:46.105Z,5.50
2023-03-15T11:07:56.599Z,5.40
2023-03-15T11:09:10.296Z,5.40
2023-03-15T11:10:22.906Z,5.40
2023-03-15T11:11:24.785Z,5.40
2023-03-15T11:12:28.757Z,5.40
2023-03-15T11:13:36.504Z,5.40
2023-03-15T11:14:44.662Z,5.40
2023-03-15T11:16:03.630Z,5.40
2023-03-15T11:17:08.158Z,5.30
2023-03-15T11:18:18.890Z,5.20
2023-03-15T11:19:32.683Z,5.20
2023-03-15T11:20:39.917Z,5.20
2023-03-15T11:21:43.718Z,5.20
2023-03-15T11:22:45.456Z,5.20
2023-03-15T11:23:50.084Z,5.20
2023-03-15T11:24:54.559Z,5.20
2023-03-15T11:25:56.640Z,5.10
2023-03-15T11:27:01.643Z,5.20
2023-03-15T11:28:04.548Z,5.20
2023-03-15T11:29:31.662Z,5.20
2023-03-15T11:30:33.430Z,5.20
2023-03-15T11:31:36.300Z,5.20
2023-03-15T11:32:38.804Z,5.20
2023-03-15T11:34:21.225Z,5.20
2023-03-15T11:35:28.885Z,5.20
2023-03-15T11:36:33.895Z,5.20
2023-03-15T11:37:41.342Z,5.20
2023-03-15T11:38:45.093Z,5.30
2023-03-15T11:39:53.787Z,5.30
2023-03-15T11:40:59.911Z,5.40
2023-03-15T11:42:11.043Z,5.50
2023-03-15T11:43:19.305Z,5.60
2023-03-15T11:44:36.127Z,5.70
2023-03-15T11:45:47.697Z,5.80
2023-03-15T11:46:54.418Z,5.80
2023-03-15T11:48:05.679Z,5.80
2023-03-15T11:49:56.072Z,5.80
2023-03-15T11:50:59.209Z,5.70
2023-03-15T11:52:01.154Z,5.80
2023-03-15T11:53:06.899Z,5.90
2023-03-15T11:54:13.435Z,5.90
2023-03-15T11:55:25.955Z,5.90
2023-03-15T11:56:45.360Z,5.90
2023-03-15T11:57:49.341Z,6.00
2023-03-15T11:59:20.406Z,6.00
2023-03-15T12:00:26.874Z,6.00
2023-03-15T12:01:28.726Z,6.00
2023-03-15T12:02:31.194Z,5.90
2023-03-15T12:03:40.276Z,5.90
2023-03-15T12:05:17.770Z,5.90
2023-03-15T12:06:19.806Z,6.00
2023-03-15T12:07:24.505Z,6.00
2023-03-15T12:08:46.621Z,5.90
2023-03-15T12:09:52.028Z,5.80
2023-03-15T12:10:53.960Z,5.80
2023-03-15T12:11:58.955Z,5.80
2023-03-15T12:13:16.383Z,5.80
2023-03-15T12:14:35.674Z,5.80
2023-03-15T12:15:37.367Z,5.80
2023-03-15T12:16:43.205Z,5.80
2023-03-15T12:17:52.120Z,5.70
2023-03-15T12:18:58.934Z,5.70
2023-03-15T12:20:11.608Z,5.70
2023-03-15T12:21:15.436Z,5.60
2023-03-15T12:22:17.926Z,5.60
2023-03-15T12:23:19.636Z,5.60
2023-03-15T12:24:23.688Z,5.60
2023-03-15T12:25:31.172Z,5.60
2023-03-15T12:26:45.784Z,5.70
2023-03-15T12:27:51.048Z,5.80
2023-03-15T12:28:59.031Z,5.90
2023-03-15T12:30:02.203Z,6.00
2023-03-15T12:31:09.610Z,6.10
2023-03-15T12:32:18.773Z,6.10
2023-03-15T12:33:23.408Z,6.20
2023-03-15T12:34:37.115Z,6.20
2023-03-15T12:35:41.486Z,6.30
2023-03-15T12:36:48.370Z,6.20
2023-03-15T12:37:53.409Z,6.20
2023-03-15T12:39:36.940Z,6.10
2023-03-15T12:40:50.040Z,6.00
2023-03-15T12:41:52.268Z,6.00
2023-03-15T12:42:57.424Z,6.10
2023-03-15T12:44:33.187Z,6.10
2023-03-15T12:45:40.235Z,6.10
2023-03-15T12:46:41.894Z,6.10
2023-03-15T12:47:47.264Z,6.10
2023-03-15T12:49:27.947Z,6.00
2023-03-15T12:50:45.945Z,6.00
2023-03-15T12:52:13.600Z,5.90
2023-03-15T12:53:39.985Z,5.90
2023-03-15T12:54:44.169Z,5.80
2023-03-15T12:55:47.486Z,5.70
2023-03-15T12:56:54.432Z,5.70
2023-03-15T12:57:59.698Z,5.80
2023-03-15T12:59:19.881Z,5.80
2023-03-15T13:00:30.381Z,5.80
2023-03-15T13:01:33.615Z,5.80
2023-03-15T13:02:43.757Z,5.80
2023-03-15T13:03:46.344Z,5.90
2023-03-15T13:04:49.774Z,6.00
2023-03-15T13:06:04.513Z,6.10
2023-03-15T13:07:51.662Z,6.10
2023-03-15T13:09:07.526Z,6.20
2023-03-15T13:10:34.269Z,6.20
2023-03-15T13:11:51.462Z,6.20
2023-03-15T13:13:19.882Z,6.20
2023-03-15T13:14:36.907Z,6.20
2023-03-15T13:16:15.588Z,6.40
2023-03-15T13:17:54.832Z,6.40
2023-03-15T13:19:23.659Z,6.50
2023-03-15T13:20:42.962Z,6.50
2023-03-15T13:21:53.964Z,6.50
2023-03-15T13:23:16.703Z,6.50
2023-03-15T13:24:27.157Z,6.50
2023-03-15T13:25:50.887Z,6.60
2023-03-15T13:27:01.361Z,6.70
2023-03-15T13:28:46.459Z,6.70
2023-03-15T13:29:48.295Z,6.80
2023-03-15T13:30:53.589Z,6.80
2023-03-15T13:32:17.149Z,6.80
2023-03-15T13:33:32.724Z,6.90
2023-03-15T13:34:34.589Z,7.00
2023-03-15T13:35:44.434Z,7.00
2023-03-15T13:36:54.776Z,7.10
2023-03-15T13:38:21.365Z,7.20
2023-03-15T13:39:31.899Z,7.40
2023-03-15T13:40:33.726Z,7.50
2023-03-15T13:41:38.347Z,7.50
2023-03-15T13:42:41.300Z,7.50
2023-03-15T13:43:44.208Z,7.60
2023-03-15T13:44:46.011Z,7.70
2023-03-15T13:45:47.833Z,7.70
2023-03-15T13:46:51.804Z,7.80
2023-03-15T13:47:53.624Z,7.80
2023-03-15T13:48:56.318Z,7.80
2023-03-15T13:49:58.153Z,7.70
2023-03-15T13:51:25.985Z,7.70
2023-03-15T13:52:28.834Z,7.60
2023-03-15T13:53:48.193Z,7.50
2023-03-15T13:54:53.967Z,7.30
2023-03-15T13:55:57.434Z,7.20
2023-03-15T13:57:22.149Z,7.10
2023-03-15T13:58:24.567Z,6.90
2023-03-15T13:59:32.819Z,6.80
2023-03-15T14:00:36.848Z,6.80
2023-03-15T14:01:42.442Z,6.70
2023-03-15T14:02:52.381Z,6.60
2023-03-15T14:04:02.018Z,6.60
2023-03-15T14:05:09.343Z,6.60
2023-03-15T14:06:22.370Z,6.60
2023-03-15T14:07:35.145Z,6.50
2023-03-15T14:08:39.097Z,6.50
2023-03-15T14:09:40.900Z,6.40
2023-03-15T14:10:42.697Z,6.40
2023-03-15T14:11:44.860Z,6.50
2023-03-15T14:12:46.828Z,6.50
2023-03-15T14:13:48.525Z,6.60
2023-03-15T14:14:52.752Z,6.60
2023-03-15T14:16:03.866Z,6.70
2023-03-15T14:17:28.358Z,6.60
2023-03-15T14:18:35.419Z,6.70
2023-03-15T14:19:37.251Z,6.70
2023-03-15T14:20:42.698Z,6.70
2023-03-15T14:21:48.999Z,6.60
2023-03-15T14:22:52.238Z,6.50
2023-03-15T14:23:54.103Z,6.50
2023-03-15T14:24:55.963Z,6.40
2023-03-15T14:26:07.701Z,6.30
2023-03-15T14:27:16.266Z,6.30
2023-03-15T14:28:18.614Z,6.30
2023-03-15T14:29:44.083Z,6.30
2023-03-15T14:30:54.384Z,6.40